Time;durP1;ratioP1;P1;durP2;ratioP2;P2;SDS_P1;SDS_P2;PMS_P1;PMS_P2;Temp;Humidity;BMP_temperature;BMP_pressure;BME280_temperature;BME280_humidity;BME280_pressure;Samples;Min_cycle;Max_cycle;Signal;HPM_P1;HPM_P2
2024/01/19 00:01:47;;;;;;;1.55;1.45;;;-1.60;99.90;;;;;;5155611;27;20043;-72
2024/01/19 00:04:13;;;;;;;1.40;1.30;;;-0.30;99.90;;;;;;5155665;27;20046;-72
2024/01/19 00:06:42;;;;;;;1.50;1.40;;;-1.30;99.90;;;;;;5155512;27;20167;-72
2024/01/19 00:09:07;;;;;;;1.40;1.30;;;-1.30;99.90;;;;;;5155461;27;20136;-72
2024/01/19 00:11:33;;;;;;;1.50;1.40;;;-1.20;99.90;;;;;;5155425;27;20484;-73
2024/01/19 00:13:58;;;;;;;1.50;1.40;;;-1.20;99.90;;;;;;5137252;27;20053;-73
2024/01/19 00:16:24;;;;;;;1.50;1.40;;;0.30;99.90;;;;;;5155349;27;20128;-71
2024/01/19 00:18:51;;;;;;;1.43;1.33;;;-1.20;99.90;;;;;;5155327;27;20082;-72
2024/01/19 00:21:16;;;;;;;1.40;1.30;;;-1.20;99.90;;;;;;5155303;27;20054;-72
2024/01/19 00:23:42;;;;;;;1.50;1.40;;;-1.20;99.90;;;;;;5155310;27;20047;-74
2024/01/19 00:26:07;;;;;;;4.72;4.28;;;-0.80;99.90;;;;;;5155233;27;20082;-72
2024/01/19 00:28:33;;;;;;;1.50;1.40;;;-1.30;99.90;;;;;;5155246;27;20039;-72
2024/01/19 00:30:58;;;;;;;1.50;1.40;;;-1.30;99.90;;;;;;5155139;27;20103;-72
2024/01/19 00:33:24;;;;;;;1.40;1.30;;;-1.30;99.90;;;;;;5155202;27;20047;-72
2024/01/19 00:35:50;;;;;;;1.40;1.30;;;-1.30;99.90;;;;;;5155379;27;20049;-71
2024/01/19 00:38:15;;;;;;;1.50;1.40;;;-1.40;99.90;;;;;;5155257;27;20038;-72
2024/01/19 00:40:41;;;;;;;1.50;1.40;;;-1.40;99.90;;;;;;5155117;27;20103;-71
2024/01/19 00:43:06;;;;;;;1.48;1.38;;;-1.40;99.90;;;;;;5155503;27;20125;-71
2024/01/19 00:45:32;;;;;;;1.45;1.35;;;-1.40;99.90;;;;;;5155233;27;20063;-71
2024/01/19 00:47:57;;;;;;;1.50;1.40;;;-1.40;99.90;;;;;;5155221;27;20042;-71
2024/01/19 00:50:23;;;;;;;1.58;1.48;;;-1.50;99.90;;;;;;5155151;27;20055;-71
2024/01/19 00:52:48;;;;;;;1.45;1.35;;;-1.50;99.90;;;;;;5154974;27;20363;-73
2024/01/19 00:55:14;;;;;;;1.48;1.38;;;-1.50;99.90;;;;;;5155057;27;20050;-72
2024/01/19 00:57:40;;;;;;;1.48;1.38;;;-1.60;99.90;;;;;;5155375;27;20039;-71
2024/01/19 01:00:06;;;;;;;1.60;1.50;;;-1.60;99.90;;;;;;5154968;27;20043;-72
2024/01/19 01:02:31;;;;;;;1.60;1.50;;;-1.60;99.90;;;;;;5154919;27;20068;-71
2024/01/19 01:04:57;;;;;;;1.73;1.63;;;-1.70;99.90;;;;;;5157291;27;20042;-71
2024/01/19 01:07:24;;;;;;;1.43;1.33;;;-1.70;99.90;;;;;;5159174;27;20046;-71
2024/01/19 01:09:49;;;;;;;1.60;1.50;;;-0.60;99.90;;;;;;5158925;27;20139;-71
2024/01/19 01:12:15;;;;;;;1.50;1.40;;;-1.80;99.90;;;;;;5158776;27;20048;-72
2024/01/19 01:14:41;;;;;;;1.50;1.40;;;-1.80;99.90;;;;;;5158816;27;20096;-72
2024/01/19 01:17:07;;;;;;;1.50;1.40;;;-1.80;99.90;;;;;;5158737;27;20030;-71
2024/01/19 01:19:33;;;;;;;2.03;1.93;;;-1.80;99.90;;;;;;5158691;27;20096;-71
2024/01/19 01:21:58;;;;;;;1.50;1.40;;;-1.80;99.90;;;;;;5158643;27;20087;-71
2024/01/19 01:24:24;;;;;;;1.50;1.40;;;-1.80;99.90;;;;;;5158717;27;20482;-71
2024/01/19 01:26:50;;;;;;;1.50;1.40;;;-1.80;99.90;;;;;;5158608;27;20389;-71
2024/01/19 01:29:16;;;;;;;1.50;1.40;;;-1.80;99.90;;;;;;5158545;27;20039;-72
2024/01/19 01:31:41;;;;;;;1.40;1.30;;;-1.80;99.90;;;;;;5158519;27;20035;-72
2024/01/19 01:34:08;;;;;;;1.60;1.50;;;-1.80;99.90;;;;;;5158453;27;20125;-71
2024/01/19 01:36:34;;;;;;;1.50;1.40;;;-1.80;99.90;;;;;;5158630;27;20121;-72
2024/01/19 01:38:59;;;;;;;1.48;1.38;;;-1.80;99.90;;;;;;5158347;27;20122;-71
2024/01/19 01:41:25;;;;;;;2.42;2.33;;;-1.80;99.90;;;;;;5139764;27;20081;-72
2024/01/19 01:43:50;;;;;;;1.60;1.50;;;-1.80;99.90;;;;;;5158490;27;20382;-71
2024/01/19 01:46:16;;;;;;;1.50;1.40;;;-1.80;99.90;;;;;;5158278;27;20050;-72
2024/01/19 01:48:42;;;;;;;1.40;1.30;;;-0.80;99.90;;;;;;5158068;27;20091;-71
2024/01/19 01:51:08;;;;;;;1.50;1.40;;;-1.70;99.90;;;;;;5139447;27;20043;-73
2024/01/19 01:53:35;;;;;;;1.50;1.40;;;-1.60;99.90;;;;;;5158072;27;20061;-71
2024/01/19 01:56:01;;;;;;;1.50;1.40;;;-1.20;99.90;;;;;;5158013;27;20406;-71
2024/01/19 01:58:27;;;;;;;1.70;1.60;;;-1.50;99.90;;;;;;5157911;27;20039;-72
2024/01/19 02:00:53;;;;;;;1.50;1.40;;;-1.50;99.90;;;;;;5158084;27;20042;-71
2024/01/19 02:03:18;;;;;;;1.50;1.40;;;-1.50;99.90;;;;;;5157603;27;20038;-71
2024/01/19 02:05:44;;;;;;;1.50;1.40;;;-1.40;99.90;;;;;;5157830;27;20043;-72
2024/01/19 02:08:10;;;;;;;1.50;1.40;;;-1.40;99.90;;;;;;5157524;27;20049;-72
2024/01/19 02:10:35;;;;;;;1.58;1.48;;;-1.40;99.90;;;;;;5157787;27;20043;-71
2024/01/19 02:13:01;;;;;;;1.40;1.30;;;-1.40;99.90;;;;;;5157715;27;20054;-72
2024/01/19 02:15:27;;;;;;;1.50;1.40;;;-1.40;99.90;;;;;;5156640;27;20130;-72
2024/01/19 02:17:54;;;;;;;1.60;1.50;;;-1.40;99.90;;;;;;5157234;27;20035;-71
2024/01/19 02:20:20;;;;;;;1.50;1.40;;;-1.30;99.90;;;;;;5157742;27;20493;-72
2024/01/19 02:22:47;;;;;;;1.50;1.40;;;-1.30;99.90;;;;;;5157492;27;20045;-71
2024/01/19 02:25:13;;;;;;;1.50;1.40;;;-1.30;99.90;;;;;;5157466;27;20533;-71
2024/01/19 02:27:39;;;;;;;1.50;1.40;;;-1.20;99.90;;;;;;5157474;27;20057;-72
2024/01/19 02:30:09;;;;;;;1.50;1.40;;;-1.10;99.90;;;;;;5157728;27;20051;-72
2024/01/19 02:32:34;;;;;;;1.42;1.33;;;-1.20;99.90;;;;;;5157290;27;20126;-72
2024/01/19 02:35:00;;;;;;;1.60;1.50;;;-1.20;99.90;;;;;;5157363;27;20134;-71
2024/01/19 02:37:26;;;;;;;1.50;1.40;;;-1.20;99.90;;;;;;5157323;27;20087;-71
2024/01/19 02:39:51;;;;;;;1.50;1.40;;;-1.20;99.90;;;;;;5157113;27;20042;-71
2024/01/19 02:42:17;;;;;;;1.50;1.40;;;-1.30;99.90;;;;;;5157166;27;20043;-71
2024/01/19 02:44:43;;;;;;;1.40;1.30;;;-0.20;99.90;;;;;;5157098;27;20209;-72
2024/01/19 02:47:08;;;;;;;1.60;1.50;;;-1.30;99.90;;;;;;5157683;27;20031;-72
2024/01/19 02:49:34;;;;;;;1.50;1.40;;;-1.40;99.90;;;;;;5157148;27;20046;-72
2024/01/19 02:51:59;;;;;;;1.50;1.40;;;-1.40;99.90;;;;;;5156845;27;20054;-72
2024/01/19 02:54:25;;;;;;;1.40;1.30;;;-1.40;99.90;;;;;;5156903;27;20486;-73
2024/01/19 02:56:51;;;;;;;1.50;1.40;;;-1.50;99.90;;;;;;5157255;27;20506;-71
2024/01/19 02:59:17;;;;;;;1.50;1.40;;;-1.50;99.90;;;;;;5156794;27;20474;-73
2024/01/19 03:01:42;;;;;;;1.50;1.40;;;-1.60;99.90;;;;;;5157244;27;20043;-72
2024/01/19 03:04:08;;;;;;;1.60;1.50;;;-0.30;99.90;;;;;;5156719;27;20482;-72
2024/01/19 03:06:34;;;;;;;1.50;1.40;;;-1.70;99.90;;;;;;5156601;27;20132;-72
2024/01/19 03:08:59;;;;;;;1.50;1.40;;;-1.70;99.90;;;;;;5156692;27;20064;-72
2024/01/19 03:11:25;;;;;;;1.60;1.50;;;-1.70;99.90;;;;;;5156227;27;20039;-72
2024/01/19 03:13:52;;;;;;;1.58;1.48;;;-1.80;99.90;;;;;;5156540;27;20083;-72
2024/01/19 03:16:18;;;;;;;1.40;1.30;;;-1.70;99.90;;;;;;5156785;27;20045;-72
2024/01/19 03:18:44;;;;;;;1.60;1.50;;;-1.70;99.90;;;;;;5156299;27;20038;-71
2024/01/19 03:21:12;;;;;;;1.40;1.30;;;-1.60;99.90;;;;;;5138175;27;20047;-71
2024/01/19 03:23:38;;;;;;;1.50;1.40;;;-1.60;99.90;;;;;;5155913;27;20031;-72
2024/01/19 03:26:05;;;;;;;1.60;1.50;;;-1.60;99.90;;;;;;5155959;27;20079;-71
2024/01/19 03:28:30;;;;;;;1.40;1.30;;;-1.50;99.90;;;;;;5155789;27;20039;-72
2024/01/19 03:30:56;;;;;;;1.45;1.35;;;-1.40;99.90;;;;;;5156369;27;20045;-72
2024/01/19 03:33:22;;;;;;;1.50;1.40;;;-1.30;99.90;;;;;;5156151;27;20046;-72
2024/01/19 03:35:47;;;;;;;1.60;1.50;;;-1.30;99.90;;;;;;5156093;27;20042;-72
2024/01/19 03:38:13;;;;;;;1.50;1.40;;;-1.30;99.90;;;;;;5155927;27;20039;-72
2024/01/19 03:40:39;;;;;;;1.50;1.40;;;-1.20;99.90;;;;;;5155932;27;20074;-72
2024/01/19 03:43:04;;;;;;;1.50;1.40;;;-1.20;99.90;;;;;;5156014;27;20038;-71
2024/01/19 03:45:30;;;;;;;1.60;1.50;;;-1.20;99.90;;;;;;5155850;27;20513;-72
2024/01/19 03:47:55;;;;;;;1.40;1.30;;;-1.10;99.90;;;;;;5155838;27;20061;-72
2024/01/19 03:50:22;;;;;;;1.50;1.40;;;-1.00;99.90;;;;;;5155406;27;20125;-71
2024/01/19 03:52:48;;;;;;;1.50;1.40;;;-1.00;99.90;;;;;;5155750;27;20043;-72
2024/01/19 03:55:16;;;;;;;1.40;1.30;;;-1.00;99.90;;;;;;5155618;27;20042;-72
2024/01/19 03:57:41;;;;;;;1.40;1.30;;;-0.80;99.90;;;;;;5155526;27;20046;-72
2024/01/19 04:00:08;;;;;;;1.50;1.40;;;-0.90;99.90;;;;;;5155634;27;20043;-72
2024/01/19 04:02:35;;;;;;;1.40;1.30;;;-0.90;99.90;;;;;;5155484;27;20050;-71
2024/01/19 04:05:00;;;;;;;1.40;1.30;;;-0.90;99.90;;;;;;5155482;27;20394;-72
2024/01/19 04:07:26;;;;;;;1.40;1.30;;;-0.80;99.90;;;;;;5155482;27;20042;-72
2024/01/19 04:09:51;;;;;;;1.50;1.40;;;-0.80;99.90;;;;;;5155420;27;20147;-71
2024/01/19 04:12:18;;;;;;;1.40;1.30;;;-0.80;99.90;;;;;;5155469;27;20047;-71
2024/01/19 04:14:45;;;;;;;1.40;1.30;;;-0.80;99.90;;;;;;5155305;27;20449;-72
2024/01/19 04:17:11;;;;;;;1.40;1.30;;;-0.70;99.90;;;;;;5155309;27;20087;-73
2024/01/19 04:19:38;;;;;;;1.50;1.40;;;-0.70;99.90;;;;;;5155367;27;20079;-71
2024/01/19 04:22:04;;;;;;;1.40;1.30;;;-0.70;99.90;;;;;;5155317;27;20049;-71
2024/01/19 04:24:30;;;;;;;1.48;1.38;;;-0.70;99.90;;;;;;5155287;27;20194;-72
2024/01/19 04:26:56;;;;;;;1.50;1.40;;;-0.70;99.90;;;;;;5155282;27;20117;-72
2024/01/19 04:29:22;;;;;;;1.40;1.30;;;-0.70;99.90;;;;;;5155610;27;20043;-71
2024/01/19 04:31:47;;;;;;;1.30;1.20;;;-0.70;99.90;;;;;;5155241;27;20047;-72
2024/01/19 04:34:13;;;;;;;1.30;1.20;;;-0.70;99.90;;;;;;5155400;27;20046;-72
2024/01/19 04:36:39;;;;;;;1.40;1.30;;;-0.70;99.90;;;;;;5154962;27;20482;-72
2024/01/19 04:39:04;;;;;;;1.50;1.40;;;-0.70;99.90;;;;;;5155827;27;20091;-71
2024/01/19 04:41:31;;;;;;;1.40;1.30;;;-0.80;99.90;;;;;;5159512;27;20092;-71
2024/01/19 04:43:56;;;;;;;1.42;1.33;;;-0.70;99.90;;;;;;5159473;27;20039;-71
2024/01/19 04:46:22;;;;;;;1.40;1.30;;;-0.80;99.90;;;;;;5159674;27;20390;-72
2024/01/19 04:48:47;;;;;;;1.40;1.30;;;-0.80;99.90;;;;;;5159696;27;20043;-72
2024/01/19 04:51:13;;;;;;;1.42;1.33;;;-0.90;99.90;;;;;;5159755;27;20135;-72
2024/01/19 04:53:39;;;;;;;1.45;1.35;;;-0.90;99.90;;;;;;5159249;27;20061;-71
2024/01/19 04:56:05;;;;;;;1.38;1.27;;;-0.90;99.90;;;;;;5159168;27;20047;-72
2024/01/19 04:58:33;;;;;;;1.40;1.30;;;-0.90;99.90;;;;;;5159053;27;20083;-72
2024/01/19 05:00:59;;;;;;;1.40;1.30;;;-0.90;99.90;;;;;;5159082;27;20074;-72
2024/01/19 05:03:25;;;;;;;1.30;1.20;;;-1.00;99.90;;;;;;5159056;27;20039;-72
2024/01/19 05:05:50;;;;;;;1.30;1.20;;;-1.00;99.90;;;;;;5159041;27;20148;-71
2024/01/19 05:08:16;;;;;;;1.40;1.30;;;-1.10;99.90;;;;;;5158950;27;20488;-73
2024/01/19 05:10:41;;;;;;;1.30;1.20;;;-1.10;99.90;;;;;;5158974;27;20111;-72
2024/01/19 05:13:07;;;;;;;1.30;1.20;;;-1.10;99.90;;;;;;5159349;27;20050;-72
2024/01/19 05:15:33;;;;;;;1.40;1.30;;;-1.00;99.90;;;;;;5158937;27;20073;-71
2024/01/19 05:18:00;;;;;;;1.50;1.40;;;-1.20;99.90;;;;;;5158417;27;20043;-72
2024/01/19 05:20:26;;;;;;;1.30;1.20;;;-1.20;99.90;;;;;;5158870;27;20050;-71
2024/01/19 05:22:51;;;;;;;1.40;1.30;;;-0.10;99.90;;;;;;5158702;27;20043;-72
2024/01/19 05:25:18;;;;;;;1.50;1.40;;;-1.30;99.90;;;;;;5158734;27;20051;-71
2024/01/19 05:27:44;;;;;;;1.40;1.30;;;-1.30;99.90;;;;;;5159245;27;20039;-71
2024/01/19 05:30:11;;;;;;;1.50;1.40;;;-1.40;99.90;;;;;;5140476;27;20052;-75
2024/01/19 05:32:37;;;;;;;1.50;1.40;;;-1.40;99.90;;;;;;5158740;27;20131;-71
2024/01/19 05:35:03;;;;;;;1.40;1.30;;;-1.40;99.90;;;;;;5158631;27;20046;-71
2024/01/19 05:37:29;;;;;;;1.40;1.30;;;-1.40;99.90;;;;;;5158376;27;20394;-75
2024/01/19 05:39:55;;;;;;;1.48;1.38;;;-1.50;99.90;;;;;;5158052;27;20949;-71
2024/01/19 05:42:20;;;;;;;1.50;1.40;;;-1.50;99.90;;;;;;5158755;27;20031;-74
2024/01/19 05:44:46;;;;;;;1.50;1.40;;;-1.50;99.90;;;;;;5157896;27;20038;-72
2024/01/19 05:47:12;;;;;;;1.40;1.30;;;-1.60;99.90;;;;;;5158080;27;20039;-73
2024/01/19 05:49:39;;;;;;;1.40;1.30;;;-1.20;99.90;;;;;;5157852;27;20035;-78
2024/01/19 05:52:05;;;;;;;1.30;1.20;;;-1.60;99.90;;;;;;5157891;27;20092;-79
2024/01/19 05:54:33;;;;;;;1.70;1.60;;;-1.60;99.90;;;;;;5157983;27;20472;-73
2024/01/19 05:56:59;;;;;;;1.40;1.30;;;-1.60;99.90;;;;;;5158341;27;20099;-72
2024/01/19 05:59:24;;;;;;;1.40;1.30;;;-1.60;99.90;;;;;;5158083;27;20086;-72
2024/01/19 06:01:50;;;;;;;1.50;1.40;;;-1.60;99.90;;;;;;5157888;27;20049;-72
2024/01/19 06:04:15;;;;;;;1.40;1.30;;;-1.60;99.90;;;;;;5157973;27;20057;-72
2024/01/19 06:06:41;;;;;;;1.50;1.40;;;-1.60;99.90;;;;;;5157841;27;20076;-72
2024/01/19 06:09:08;;;;;;;1.40;1.30;;;-1.60;99.90;;;;;;5157754;27;20081;-73
2024/01/19 06:11:33;;;;;;;1.40;1.30;;;-1.60;99.90;;;;;;5157840;27;20390;-72
2024/01/19 06:13:59;;;;;;;1.40;1.30;;;-1.60;99.90;;;;;;5158027;27;20042;-72
2024/01/19 06:16:24;;;;;;;1.40;1.30;;;-1.60;99.90;;;;;;5157858;27;20050;-71
2024/01/19 06:18:50;;;;;;;1.50;1.40;;;-1.60;99.90;;;;;;5157830;27;20057;-72
2024/01/19 06:21:15;;;;;;;1.50;1.40;;;-1.60;99.90;;;;;;5157680;27;20045;-72
2024/01/19 06:23:41;;;;;;;1.40;1.30;;;-0.60;99.90;;;;;;5157458;27;20108;-72
2024/01/19 06:26:10;;;;;;;1.43;1.33;;;0.00;99.90;;;;;;5139034;27;20074;-72
2024/01/19 06:28:36;;;;;;;1.40;1.30;;;-1.70;99.90;;;;;;5157383;27;20042;-73
2024/01/19 06:31:03;;;;;;;1.50;1.40;;;-1.70;99.90;;;;;;5157450;27;20121;-73
2024/01/19 06:33:30;;;;;;;1.50;1.40;;;-1.70;99.90;;;;;;5157359;27;20171;-71
2024/01/19 06:35:56;;;;;;;1.50;1.40;;;-1.70;99.90;;;;;;5157279;27;20046;-72
2024/01/19 06:38:23;;;;;;;1.50;1.40;;;-1.70;99.90;;;;;;5156997;27;20057;-72
2024/01/19 06:40:49;;;;;;;1.58;1.48;;;-1.70;99.90;;;;;;5156798;27;20517;-72
2024/01/19 06:43:15;;;;;;;1.50;1.40;;;-1.70;99.90;;;;;;5157241;27;20043;-74
2024/01/19 06:45:40;;;;;;;1.50;1.40;;;-1.70;99.90;;;;;;5138750;27;20045;-76
2024/01/19 06:48:06;;;;;;;1.50;1.40;;;-1.70;99.90;;;;;;5157304;27;20043;-72
2024/01/19 06:50:32;;;;;;;1.45;1.35;;;-1.70;99.90;;;;;;5157076;27;20526;-71
2024/01/19 06:52:59;;;;;;;1.40;1.30;;;-1.70;99.90;;;;;;5156881;27;20483;-72
2024/01/19 06:55:25;;;;;;;1.40;1.30;;;-1.00;99.90;;;;;;5156861;27;20067;-77
2024/01/19 06:57:51;;;;;;;1.47;1.37;;;-1.70;99.90;;;;;;5157150;27;20042;-77
2024/01/19 07:00:18;;;;;;;1.50;1.40;;;-1.70;99.90;;;;;;5156848;27;20102;-78
2024/01/19 07:02:44;;;;;;;;;;;-1.60;99.90;;;;;;5156246;27;20513;-79
2024/01/19 07:05:10;;;;;;;1.50;1.40;;;-1.50;99.90;;;;;;5156690;27;20064;-77
2024/01/19 07:07:35;;;;;;;1.50;1.40;;;-1.50;99.90;;;;;;5156621;27;20125;-77
2024/01/19 07:10:01;;;;;;;1.50;1.40;;;-1.40;99.90;;;;;;5156847;27;20175;-78
2024/01/19 07:12:26;;;;;;;1.40;1.30;;;-1.40;99.90;;;;;;5156399;27;20035;-77
2024/01/19 07:14:52;;;;;;;1.40;1.30;;;-1.30;99.90;;;;;;5138041;27;20126;-76
2024/01/19 07:17:18;;;;;;;1.50;1.40;;;-1.30;99.90;;;;;;5156369;27;20488;-78
2024/01/19 07:19:43;;;;;;;1.40;1.30;;;-1.20;99.90;;;;;;5156499;27;20040;-77
2024/01/19 07:22:09;;;;;;;1.50;1.40;;;-1.20;99.90;;;;;;5156031;27;20110;-76
2024/01/19 07:24:35;;;;;;;1.40;1.30;;;-1.20;99.90;;;;;;5156286;27;20557;-72
2024/01/19 07:27:03;;;;;;;1.40;1.30;;;-1.10;99.90;;;;;;5156334;27;20042;-74
2024/01/19 07:29:29;;;;;;;1.40;1.30;;;-1.20;99.90;;;;;;5155870;27;20045;-72
2024/01/19 07:31:55;;;;;;;1.40;1.30;;;-1.20;99.90;;;;;;5156028;27;20088;-72
2024/01/19 07:34:21;;;;;;;1.40;1.30;;;-1.10;99.90;;;;;;5155960;27;20095;-72
2024/01/19 07:36:46;;;;;;;1.50;1.40;;;-1.20;99.90;;;;;;5156041;27;20038;-71
2024/01/19 07:39:12;;;;;;;1.50;1.40;;;-1.20;99.90;;;;;;5155732;27;20493;-71
2024/01/19 07:41:37;;;;;;;1.40;1.30;;;-1.10;99.90;;;;;;5155867;27;20074;-71
2024/01/19 07:44:03;;;;;;;1.40;1.30;;;-1.20;99.90;;;;;;5155853;27;20076;-72
2024/01/19 07:46:29;;;;;;;1.40;1.30;;;-1.20;99.90;;;;;;5155803;27;20107;-72
2024/01/19 07:48:54;;;;;;;1.42;1.33;;;-1.30;99.90;;;;;;5156083;27;20096;-71
2024/01/19 07:51:21;;;;;;;1.50;1.40;;;-1.20;99.90;;;;;;5155661;27;20055;-72
2024/01/19 07:53:47;;;;;;;1.38;1.27;;;-1.40;99.90;;;;;;5155607;27;20062;-73
2024/01/19 07:56:12;;;;;;;1.40;1.30;;;-1.40;99.90;;;;;;5155779;27;20060;-72
2024/01/19 07:58:41;;;;;;;1.30;1.20;;;-1.40;99.90;;;;;;5155594;27;20039;-74
2024/01/19 08:01:07;;;;;;;1.30;1.20;;;-1.50;99.90;;;;;;5155461;27;20122;-77
2024/01/19 08:03:33;;;;;;;1.40;1.30;;;-1.50;99.90;;;;;;5155561;27;20066;-71
2024/01/19 08:05:58;;;;;;;1.40;1.30;;;0.10;99.90;;;;;;5155498;27;20031;-74
2024/01/19 08:08:24;;;;;;;1.40;1.30;;;-1.50;99.90;;;;;;5155484;27;20043;-74
2024/01/19 08:10:50;;;;;;;1.40;1.30;;;-1.50;99.90;;;;;;5155468;27;20089;-72
2024/01/19 08:13:15;;;;;;;1.50;1.40;;;-1.50;99.90;;;;;;5155364;27;20099;-73
2024/01/19 08:15:41;;;;;;;1.40;1.30;;;-1.00;99.90;;;;;;5136910;27;20081;-74
2024/01/19 08:18:06;;;;;;;1.40;1.30;;;-1.50;99.90;;;;;;5155556;27;20034;-72
2024/01/19 08:20:32;;;;;;;1.40;1.30;;;-1.50;99.90;;;;;;5155267;27;20121;-73
2024/01/19 08:22:58;;;;;;;1.40;1.30;;;-0.70;99.90;;;;;;5155100;27;20143;-71
2024/01/19 08:25:23;;;;;;;1.40;1.30;;;-1.40;99.90;;;;;;5155238;27;20478;-74
2024/01/19 08:27:49;;;;;;;1.38;1.27;;;-1.40;99.90;;;;;;5155251;27;20039;-72
2024/01/19 08:30:19;;;;;;;1.50;1.40;;;-1.40;99.90;;;;;;5155162;27;20125;-80
2024/01/19 08:32:45;;;;;;;1.50;1.40;;;-1.00;99.90;;;;;;5155373;27;20089;-74
2024/01/19 08:35:11;;;;;;;1.40;1.30;;;-1.20;99.90;;;;;;5155081;27;20053;-72
2024/01/19 08:37:41;;;;;;;1.40;1.30;;;-1.00;99.90;;;;;;5154856;27;20042;-72
2024/01/19 08:40:08;;;;;;;1.30;1.20;;;-1.00;99.90;;;;;;5155493;27;20442;-74
2024/01/19 08:42:34;;;;;;;1.30;1.20;;;-0.90;99.90;;;;;;5155072;27;20046;-73
2024/01/19 08:45:00;;;;;;;1.40;1.30;;;-0.80;99.90;;;;;;5155039;27;20051;-73
2024/01/19 08:47:26;;;;;;;1.30;1.20;;;-0.80;99.90;;;;;;5136687;27;20042;-76
2024/01/19 08:49:52;;;;;;;1.60;1.50;;;-0.70;99.90;;;;;;5154813;27;20035;-73
2024/01/19 08:52:18;;;;;;;1.40;1.30;;;-0.70;99.90;;;;;;5155107;27;20051;-72
2024/01/19 08:54:44;;;;;;;1.30;1.20;;;-0.70;99.90;;;;;;5154961;27;20061;-73
2024/01/19 08:57:09;;;;;;;1.40;1.30;;;-0.60;99.90;;;;;;5154913;27;20366;-76
2024/01/19 08:59:35;;;;;;;1.40;1.30;;;-0.60;99.90;;;;;;5136821;27;20047;-73
2024/01/19 09:02:01;;;;;;;1.50;1.40;;;-0.60;99.90;;;;;;5154653;27;20485;-75
2024/01/19 09:04:27;;;;;;;1.40;1.30;;;-0.30;99.90;;;;;;5154952;27;20039;-74
2024/01/19 09:06:55;;;;;;;1.40;1.30;;;-0.60;99.90;;;;;;5154601;27;20039;-74
2024/01/19 09:09:21;;;;;;;1.40;1.30;;;-0.60;99.90;;;;;;5154803;27;20039;-80
2024/01/19 09:11:46;;;;;;;1.35;1.25;;;-0.50;99.90;;;;;;5154967;27;20043;-74
2024/01/19 09:14:13;;;;;;;1.40;1.30;;;-0.50;99.90;;;;;;5154829;27;20500;-76
2024/01/19 09:16:42;;;;;;;1.40;1.30;;;-0.50;99.90;;;;;;5154838;27;20099;-71
2024/01/19 09:19:08;;;;;;;1.30;1.20;;;-0.50;99.90;;;;;;5154707;27;20497;-81
2024/01/19 09:21:33;;;;;;;1.30;1.20;;;-0.40;99.90;;;;;;5120106;27;20038;-75
2024/01/19 09:23:59;;;;;;;1.40;1.30;;;-0.50;99.90;;;;;;5154684;27;20042;-74
2024/01/19 09:26:24;;;;;;;1.35;1.25;;;-0.40;99.90;;;;;;5157604;27;20039;-72
2024/01/19 09:28:50;;;;;;;1.40;1.30;;;-0.40;99.90;;;;;;5158803;27;20121;-76
2024/01/19 09:31:16;;;;;;;1.40;1.30;;;-0.40;99.90;;;;;;5158566;27;20085;-79
2024/01/19 09:33:42;;;;;;;1.30;1.20;;;-0.40;99.90;;;;;;5158506;27;20081;-76
2024/01/19 09:36:08;;;;;;;1.30;1.20;;;-0.30;99.90;;;;;;5158426;27;20049;-81
2024/01/19 09:38:35;;;;;;;1.30;1.20;;;-0.30;99.90;;;;;;5158442;27;20123;-76
2024/01/19 09:41:18;;;;;;;1.40;1.30;;;-0.20;99.90;;;;;;5158589;27;20049;-74
2024/01/19 09:43:47;;;;;;;1.38;1.27;;;-0.20;99.90;;;;;;5158562;27;20086;-71
2024/01/19 09:46:21;;;;;;;1.30;1.20;;;-0.20;99.90;;;;;;5158231;27;20034;-72
2024/01/19 09:49:08;;;;;;;1.20;1.10;;;-0.10;99.90;;;;;;5158267;27;20102;-70
2024/01/19 09:51:56;;;;;;;1.30;1.20;;;-0.10;99.90;;;;;;5158082;27;20073;-75
2024/01/19 09:54:32;;;;;;;;;;;0.00;99.90;;;;;;5158548;27;20081;-74
2024/01/19 09:57:00;;;;;;;1.20;1.10;;;0.00;99.90;;;;;;5157847;27;19919;-73
2024/01/19 09:59:30;;;;;;;1.30;1.20;;;0.10;99.90;;;;;;5157620;27;20482;-73
2024/01/19 10:01:56;;;;;;;1.20;1.10;;;0.10;99.90;;;;;;5158314;27;20450;-75
2024/01/19 10:04:23;;;;;;;1.20;1.10;;;0.10;99.90;;;;;;5157937;27;20095;-73
2024/01/19 10:06:54;;;;;;;1.27;1.17;;;0.20;99.90;;;;;;5157760;27;20534;-74
2024/01/19 10:09:23;;;;;;;1.20;1.10;;;0.20;99.90;;;;;;5157788;27;20031;-74
2024/01/19 10:11:51;;;;;;;1.20;1.10;;;0.30;99.90;;;;;;5157719;27;20065;-73
2024/01/19 10:14:18;;;;;;;1.30;1.20;;;0.30;99.90;;;;;;5157733;27;20043;-73
2024/01/19 10:16:43;;;;;;;1.20;1.10;;;0.40;99.90;;;;;;5157691;27;20119;-68
2024/01/19 10:19:14;;;;;;;1.20;1.10;;;0.40;99.90;;;;;;5157660;27;20092;-75
2024/01/19 10:21:40;;;;;;;1.20;1.10;;;0.40;99.90;;;;;;5157644;27;20043;-76
2024/01/19 10:24:19;;;;;;;1.20;1.10;;;0.50;99.90;;;;;;5157619;27;20034;-74
2024/01/19 10:26:53;;;;;;;1.20;1.10;;;0.50;99.90;;;;;;5157918;27;20042;-72
2024/01/19 10:29:19;;;;;;;1.20;1.10;;;0.60;99.90;;;;;;5157428;27;20049;-74
2024/01/19 10:31:52;;;;;;;1.20;1.10;;;0.60;99.90;;;;;;5157556;27;20125;-75
2024/01/19 10:34:22;;;;;;;1.20;1.10;;;0.60;99.90;;;;;;5157271;27;20054;-74
2024/01/19 10:36:49;;;;;;;1.20;1.10;;;0.70;99.90;;;;;;5156594;27;20049;-74
2024/01/19 10:39:21;;;;;;;1.20;1.10;;;0.70;99.90;;;;;;5157736;27;20043;-74
2024/01/19 10:41:51;;;;;;;1.30;1.20;;;0.80;99.90;;;;;;5157176;27;20043;-74
2024/01/19 10:44:20;;;;;;;1.23;1.13;;;0.80;99.90;;;;;;5157194;27;20050;-74
2024/01/19 10:46:46;;;;;;;1.20;1.10;;;0.90;99.90;;;;;;5157096;27;20047;-75
2024/01/19 10:49:15;;;;;;;1.20;1.10;;;0.90;99.90;;;;;;5157092;27;20034;-74
2024/01/19 10:51:43;;;;;;;1.30;1.20;;;1.00;99.90;;;;;;5157066;27;20064;-74
2024/01/19 10:54:15;;;;;;;1.20;1.10;;;1.00;99.90;;;;;;5156936;27;20047;-75
2024/01/19 10:56:42;;;;;;;1.40;1.30;;;1.00;99.90;;;;;;5157133;27;20431;-74
2024/01/19 10:59:14;;;;;;;1.20;1.10;;;1.10;99.90;;;;;;5156786;27;20074;-74
2024/01/19 11:01:42;;;;;;;1.20;1.10;;;1.10;99.90;;;;;;5156833;27;20066;-74
2024/01/19 11:04:09;;;;;;;1.40;1.30;;;1.10;99.90;;;;;;5139053;27;20072;-74
2024/01/19 11:06:36;;;;;;;1.27;1.17;;;1.20;99.90;;;;;;5156596;27;20047;-74
2024/01/19 11:09:08;;;;;;;1.27;1.17;;;1.30;99.90;;;;;;5156951;27;20031;-74
2024/01/19 11:11:39;;;;;;;1.20;1.10;;;1.30;99.90;;;;;;5157165;27;20053;-74
2024/01/19 11:14:08;;;;;;;1.20;1.10;;;1.30;99.90;;;;;;5156704;27;20047;-75
2024/01/19 11:16:47;;;;;;;1.15;1.05;;;1.40;99.90;;;;;;5156425;27;20123;-75
2024/01/19 11:19:15;;;;;;;1.20;1.10;;;1.50;99.90;;;;;;5156428;27;20039;-75
2024/01/19 11:21:42;;;;;;;1.20;1.10;;;1.50;99.90;;;;;;5156349;27;20103;-75
2024/01/19 11:24:08;;;;;;;1.20;1.10;;;1.50;99.90;;;;;;5137942;27;20046;-75
2024/01/19 11:26:49;;;;;;;1.30;1.20;;;1.50;99.90;;;;;;5156295;27;20549;-75
2024/01/19 11:29:21;;;;;;;1.20;1.10;;;1.60;99.90;;;;;;5156706;27;20046;-75
2024/01/19 11:31:50;;;;;;;1.30;1.20;;;1.60;99.90;;;;;;5156895;27;20121;-75
2024/01/19 11:34:48;;;;;;;1.40;1.30;;;1.60;99.90;;;;;;5156191;27;20065;-76
2024/01/19 11:37:38;;;;;;;1.73;1.63;;;1.70;99.90;;;;;;5155962;27;20085;-75
2024/01/19 11:40:05;;;;;;;1.10;1.00;;;1.70;99.90;;;;;;5156434;27;20137;-75
2024/01/19 11:42:33;;;;;;;1.30;1.20;;;1.80;99.90;;;;;;5156504;27;20046;-75
2024/01/19 11:45:00;;;;;;;1.30;1.20;;;1.80;99.90;;;;;;5155988;27;20145;-74
2024/01/19 11:47:44;;;;;;;1.20;1.10;;;1.90;99.90;;;;;;5155882;27;20046;-75
2024/01/19 11:50:11;;;;;;;1.20;1.10;;;1.90;99.90;;;;;;5155938;27;20058;-75
2024/01/19 11:52:39;;;;;;;1.20;1.10;;;2.00;99.90;;;;;;5155775;27;20039;-75
2024/01/19 11:55:26;;;;;;;1.20;1.10;;;2.00;99.90;;;;;;5155757;27;20063;-75
2024/01/19 11:57:53;;;;;;;1.30;1.20;;;2.10;99.90;;;;;;5155370;27;20549;-75
2024/01/19 12:00:19;;;;;;;1.20;1.10;;;2.10;99.90;;;;;;5155673;27;20038;-75
2024/01/19 12:02:45;;;;;;;1.30;1.20;;;2.20;99.90;;;;;;5155714;27;20039;-75
2024/01/19 12:05:11;;;;;;;1.20;1.10;;;2.20;99.90;;;;;;5137477;27;20319;-75
2024/01/19 12:07:37;;;;;;;1.38;1.25;;;2.30;99.90;;;;;;5155659;27;20070;-75
2024/01/19 12:10:08;;;;;;;1.20;1.10;;;2.30;99.90;;;;;;5155438;27;20482;-75
2024/01/19 12:12:35;;;;;;;1.20;1.10;;;2.40;99.90;;;;;;5155519;27;20085;-74
2024/01/19 12:15:02;;;;;;;1.20;1.10;;;2.40;99.90;;;;;;5155158;27;20485;-75
2024/01/19 12:17:28;;;;;;;1.20;1.10;;;2.50;99.90;;;;;;5155295;27;20057;-75
2024/01/19 12:19:54;;;;;;;1.30;1.20;;;2.50;99.90;;;;;;5155378;27;20054;-75
2024/01/19 12:22:21;;;;;;;1.25;1.15;;;2.50;99.90;;;;;;5155354;27;20038;-75
2024/01/19 12:24:46;;;;;;;1.25;1.15;;;2.50;99.90;;;;;;5155334;27;20491;-75
2024/01/19 12:27:23;;;;;;;1.20;1.10;;;2.60;99.90;;;;;;5155344;27;20034;-75
2024/01/19 12:29:48;;;;;;;1.63;1.52;;;2.60;99.90;;;;;;5155391;27;20127;-75
2024/01/19 12:32:18;;;;;;;1.40;1.30;;;2.70;99.90;;;;;;5154837;27;20078;-68
2024/01/19 12:34:59;;;;;;;1.20;1.10;;;2.70;99.90;;;;;;5155219;27;20074;-78
2024/01/19 12:37:25;;;;;;;1.20;1.10;;;2.70;99.90;;;;;;5155014;27;20047;-74
2024/01/19 12:39:50;;;;;;;1.20;1.10;;;2.70;99.90;;;;;;5155102;27;20054;-74
2024/01/19 12:42:17;;;;;;;1.20;1.10;;;2.80;99.90;;;;;;5155396;27;20052;-74
2024/01/19 12:44:42;;;;;;;1.20;1.10;;;2.90;99.90;;;;;;5155063;27;20043;-75
2024/01/19 12:47:08;;;;;;;1.30;1.20;;;2.90;99.90;;;;;;5154960;27;20046;-74
2024/01/19 12:49:33;;;;;;;1.15;1.05;;;2.90;99.90;;;;;;5155057;27;20050;-74